Weather at Frederick Municipal Airport

Public forecast

Using degrees Fahrenheit for public forecast. Weather courtesy of forecast.io.

Current aviation weather report (METAR) for Frederick Municipal Airport

Retrieved 2021/05/12 15:47 UTC (1 hour ago):

KFDK 121547Z 05005KT 10SM CLR 16/04 A3028

Closest aviation forecast (TAF) to Frederick Municipal Airport

Closest forecast is Eastern WV Regional Airport/Shepherd Field, 28.3 nm (52.5 km) W. Retrieved 2021/05/12 12:42 UTC (4 hours ago):

TAF KMRB 121140Z 1212/1312 32003KT P6SM SCT150 FM121500 34010KT P6SM SCT250 FM122200 35007KT P6SM FEW060 SCT100 FM130600 VRB03KT P6SM FEW250